sensor_id;sensor_type;location;lat;lon;timestamp;P1;durP1;ratioP1;P2;durP2;ratioP2
20988;SDS011;10653;47.052;15.410;2023-04-24T00:01:36;6.00;;;5.50;;
20988;SDS011;10653;47.052;15.410;2023-04-24T00:04:04;6.30;;;5.70;;
20988;SDS011;10653;47.052;15.410;2023-04-24T00:06:31;6.80;;;5.70;;
20988;SDS011;10653;47.052;15.410;2023-04-24T00:09:02;6.10;;;5.60;;
20988;SDS011;10653;47.052;15.410;2023-04-24T00:11:28;6.33;;;5.73;;
20988;SDS011;10653;47.052;15.410;2023-04-24T00:13:55;10.20;;;7.80;;
20988;SDS011;10653;47.052;15.410;2023-04-24T00:16:21;7.97;;;7.17;;
20988;SDS011;10653;47.052;15.410;2023-04-24T00:18:47;8.30;;;6.80;;
20988;SDS011;10653;47.052;15.410;2023-04-24T00:21:13;7.23;;;6.43;;
20988;SDS011;10653;47.052;15.410;2023-04-24T00:23:41;6.70;;;6.03;;
20988;SDS011;10653;47.052;15.410;2023-04-24T00:26:07;8.80;;;7.33;;
20988;SDS011;10653;47.052;15.410;2023-04-24T00:28:33;6.70;;;6.00;;
20988;SDS011;10653;47.052;15.410;2023-04-24T00:30:59;6.80;;;5.90;;
20988;SDS011;10653;47.052;15.410;2023-04-24T00:33:25;6.80;;;6.10;;
20988;SDS011;10653;47.052;15.410;2023-04-24T00:35:51;7.63;;;6.93;;
20988;SDS011;10653;47.052;15.410;2023-04-24T00:38:17;7.23;;;6.23;;
20988;SDS011;10653;47.052;15.410;2023-04-24T00:40:43;9.13;;;6.50;;
20988;SDS011;10653;47.052;15.410;2023-04-24T00:43:09;6.87;;;5.80;;
20988;SDS011;10653;47.052;15.410;2023-04-24T00:45:35;8.00;;;6.67;;
20988;SDS011;10653;47.052;15.410;2023-04-24T00:48:01;8.00;;;6.27;;
20988;SDS011;10653;47.052;15.410;2023-04-24T00:50:28;11.23;;;7.30;;
20988;SDS011;10653;47.052;15.410;2023-04-24T00:52:54;9.23;;;6.87;;
20988;SDS011;10653;47.052;15.410;2023-04-24T00:55:20;8.50;;;7.10;;
20988;SDS011;10653;47.052;15.410;2023-04-24T00:57:46;7.30;;;6.60;;
20988;SDS011;10653;47.052;15.410;2023-04-24T01:00:13;8.63;;;6.23;;
20988;SDS011;10653;47.052;15.410;2023-04-24T01:02:39;7.53;;;6.37;;
20988;SDS011;10653;47.052;15.410;2023-04-24T01:05:09;9.50;;;6.77;;
20988;SDS011;10653;47.052;15.410;2023-04-24T01:07:36;7.40;;;6.20;;
20988;SDS011;10653;47.052;15.410;2023-04-24T01:10:03;7.73;;;6.90;;
20988;SDS011;10653;47.052;15.410;2023-04-24T01:12:29;12.10;;;7.90;;
20988;SDS011;10653;47.052;15.410;2023-04-24T01:14:55;8.93;;;6.67;;
20988;SDS011;10653;47.052;15.410;2023-04-24T01:17:22;10.40;;;6.50;;
20988;SDS011;10653;47.052;15.410;2023-04-24T01:19:48;7.43;;;5.90;;
20988;SDS011;10653;47.052;15.410;2023-04-24T01:22:14;6.83;;;6.10;;
20988;SDS011;10653;47.052;15.410;2023-04-24T01:24:41;6.53;;;5.47;;
20988;SDS011;10653;47.052;15.410;2023-04-24T01:27:07;6.03;;;5.43;;
20988;SDS011;10653;47.052;15.410;2023-04-24T01:29:34;4.13;;;3.80;;
20988;SDS011;10653;47.052;15.410;2023-04-24T01:32:00;6.47;;;5.80;;
20988;SDS011;10653;47.052;15.410;2023-04-24T01:34:26;5.90;;;5.10;;
20988;SDS011;10653;47.052;15.410;2023-04-24T01:36:52;5.93;;;5.40;;
20988;SDS011;10653;47.052;15.410;2023-04-24T01:39:19;6.80;;;6.10;;
20988;SDS011;10653;47.052;15.410;2023-04-24T01:41:45;6.00;;;5.40;;
20988;SDS011;10653;47.052;15.410;2023-04-24T01:44:11;9.83;;;6.77;;
20988;SDS011;10653;47.052;15.410;2023-04-24T01:46:38;6.17;;;5.53;;
20988;SDS011;10653;47.052;15.410;2023-04-24T01:49:04;6.80;;;6.10;;
20988;SDS011;10653;47.052;15.410;2023-04-24T01:51:30;8.40;;;6.60;;
20988;SDS011;10653;47.052;15.410;2023-04-24T01:53:56;7.60;;;6.50;;
20988;SDS011;10653;47.052;15.410;2023-04-24T01:56:22;6.50;;;5.23;;
20988;SDS011;10653;47.052;15.410;2023-04-24T01:58:52;7.60;;;5.40;;
20988;SDS011;10653;47.052;15.410;2023-04-24T02:01:20;6.57;;;5.97;;
20988;SDS011;10653;47.052;15.410;2023-04-24T02:03:46;6.10;;;4.90;;
20988;SDS011;10653;47.052;15.410;2023-04-24T02:06:12;5.70;;;5.20;;
20988;SDS011;10653;47.052;15.410;2023-04-24T02:08:38;6.67;;;6.00;;
20988;SDS011;10653;47.052;15.410;2023-04-24T02:11:04;9.80;;;6.30;;
20988;SDS011;10653;47.052;15.410;2023-04-24T02:13:31;6.60;;;5.60;;
20988;SDS011;10653;47.052;15.410;2023-04-24T02:15:58;8.97;;;6.33;;
20988;SDS011;10653;47.052;15.410;2023-04-24T02:18:24;7.13;;;6.53;;
20988;SDS011;10653;47.052;15.410;2023-04-24T02:20:50;6.63;;;6.03;;
20988;SDS011;10653;47.052;15.410;2023-04-24T02:23:16;7.10;;;6.40;;
20988;SDS011;10653;47.052;15.410;2023-04-24T02:25:42;8.70;;;6.77;;
20988;SDS011;10653;47.052;15.410;2023-04-24T02:28:08;8.03;;;6.43;;
20988;SDS011;10653;47.052;15.410;2023-04-24T02:30:34;6.80;;;6.00;;
20988;SDS011;10653;47.052;15.410;2023-04-24T02:33:00;9.40;;;6.77;;
20988;SDS011;10653;47.052;15.410;2023-04-24T02:35:26;8.57;;;7.73;;
20988;SDS011;10653;47.052;15.410;2023-04-24T02:37:52;7.17;;;6.47;;
20988;SDS011;10653;47.052;15.410;2023-04-24T02:40:18;7.60;;;6.87;;
20988;SDS011;10653;47.052;15.410;2023-04-24T02:42:44;6.80;;;6.20;;
20988;SDS011;10653;47.052;15.410;2023-04-24T02:45:10;7.10;;;6.40;;
20988;SDS011;10653;47.052;15.410;2023-04-24T02:47:36;8.33;;;6.67;;
20988;SDS011;10653;47.052;15.410;2023-04-24T02:50:02;7.40;;;5.70;;
20988;SDS011;10653;47.052;15.410;2023-04-24T02:52:29;11.07;;;8.20;;
20988;SDS011;10653;47.052;15.410;2023-04-24T02:54:55;8.60;;;7.70;;
20988;SDS011;10653;47.052;15.410;2023-04-24T02:57:21;7.73;;;6.93;;
20988;SDS011;10653;47.052;15.410;2023-04-24T02:59:47;8.30;;;7.50;;
20988;SDS011;10653;47.052;15.410;2023-04-24T03:02:13;8.40;;;6.60;;
20988;SDS011;10653;47.052;15.410;2023-04-24T03:04:39;7.70;;;7.00;;
20988;SDS011;10653;47.052;15.410;2023-04-24T03:07:05;7.07;;;6.37;;
20988;SDS011;10653;47.052;15.410;2023-04-24T03:09:31;7.87;;;7.10;;
20988;SDS011;10653;47.052;15.410;2023-04-24T03:11:57;7.00;;;6.30;;
20988;SDS011;10653;47.052;15.410;2023-04-24T03:14:23;8.67;;;7.00;;
20988;SDS011;10653;47.052;15.410;2023-04-24T03:16:49;7.53;;;6.70;;
20988;SDS011;10653;47.052;15.410;2023-04-24T03:19:15;8.23;;;7.03;;
20988;SDS011;10653;47.052;15.410;2023-04-24T03:21:41;6.30;;;5.50;;
20988;SDS011;10653;47.052;15.410;2023-04-24T03:24:08;6.97;;;6.27;;
20988;SDS011;10653;47.052;15.410;2023-04-24T03:26:34;7.77;;;5.57;;
20988;SDS011;10653;47.052;15.410;2023-04-24T03:29:00;6.50;;;5.90;;
20988;SDS011;10653;47.052;15.410;2023-04-24T03:31:27;6.23;;;5.30;;
20988;SDS011;10653;47.052;15.410;2023-04-24T03:33:53;7.57;;;6.27;;
20988;SDS011;10653;47.052;15.410;2023-04-24T03:36:19;6.90;;;5.40;;
20988;SDS011;10653;47.052;15.410;2023-04-24T03:38:45;7.53;;;6.83;;
20988;SDS011;10653;47.052;15.410;2023-04-24T03:41:11;10.33;;;9.20;;
20988;SDS011;10653;47.052;15.410;2023-04-24T03:43:37;8.83;;;7.93;;
20988;SDS011;10653;47.052;15.410;2023-04-24T03:46:04;8.43;;;7.63;;
20988;SDS011;10653;47.052;15.410;2023-04-24T03:48:30;8.67;;;7.87;;
20988;SDS011;10653;47.052;15.410;2023-04-24T03:50:56;7.67;;;6.93;;
20988;SDS011;10653;47.052;15.410;2023-04-24T03:53:22;9.90;;;8.60;;
20988;SDS011;10653;47.052;15.410;2023-04-24T03:55:48;9.27;;;8.10;;
20988;SDS011;10653;47.052;15.410;2023-04-24T03:58:14;8.90;;;8.03;;
20988;SDS011;10653;47.052;15.410;2023-04-24T04:00:40;9.50;;;8.60;;
20988;SDS011;10653;47.052;15.410;2023-04-24T04:03:06;8.70;;;7.90;;
20988;SDS011;10653;47.052;15.410;2023-04-24T04:05:32;9.03;;;8.10;;
20988;SDS011;10653;47.052;15.410;2023-04-24T04:07:58;9.37;;;8.53;;
20988;SDS011;10653;47.052;15.410;2023-04-24T04:10:25;9.17;;;8.30;;
20988;SDS011;10653;47.052;15.410;2023-04-24T04:12:51;9.20;;;8.30;;
20988;SDS011;10653;47.052;15.410;2023-04-24T04:15:17;10.27;;;9.27;;
20988;SDS011;10653;47.052;15.410;2023-04-24T04:17:43;11.33;;;9.70;;
20988;SDS011;10653;47.052;15.410;2023-04-24T04:20:10;9.90;;;8.23;;
20988;SDS011;10653;47.052;15.410;2023-04-24T04:22:36;10.53;;;9.40;;
20988;SDS011;10653;47.052;15.410;2023-04-24T04:25:03;11.00;;;9.13;;
20988;SDS011;10653;47.052;15.410;2023-04-24T04:27:29;10.63;;;8.37;;
20988;SDS011;10653;47.052;15.410;2023-04-24T04:29:59;10.00;;;8.97;;
20988;SDS011;10653;47.052;15.410;2023-04-24T04:32:32;10.30;;;8.60;;
20988;SDS011;10653;47.052;15.410;2023-04-24T04:34:58;9.73;;;8.27;;
20988;SDS011;10653;47.052;15.410;2023-04-24T04:37:37;11.20;;;9.23;;
20988;SDS011;10653;47.052;15.410;2023-04-24T04:40:03;9.97;;;8.73;;
20988;SDS011;10653;47.052;15.410;2023-04-24T04:42:32;9.47;;;8.37;;
20988;SDS011;10653;47.052;15.410;2023-04-24T04:44:59;10.53;;;8.40;;
20988;SDS011;10653;47.052;15.410;2023-04-24T04:47:25;11.03;;;8.93;;
20988;SDS011;10653;47.052;15.410;2023-04-24T04:49:53;13.00;;;7.10;;
20988;SDS011;10653;47.052;15.410;2023-04-24T04:52:19;9.73;;;8.60;;
20988;SDS011;10653;47.052;15.410;2023-04-24T04:54:49;10.47;;;9.17;;
20988;SDS011;10653;47.052;15.410;2023-04-24T04:57:15;13.93;;;10.27;;
20988;SDS011;10653;47.052;15.410;2023-04-24T04:59:41;12.17;;;11.07;;
20988;SDS011;10653;47.052;15.410;2023-04-24T05:02:08;11.17;;;10.00;;
20988;SDS011;10653;47.052;15.410;2023-04-24T05:04:34;9.97;;;8.90;;
20988;SDS011;10653;47.052;15.410;2023-04-24T05:07:00;10.17;;;9.00;;
20988;SDS011;10653;47.052;15.410;2023-04-24T05:09:26;9.33;;;8.40;;
20988;SDS011;10653;47.052;15.410;2023-04-24T05:11:54;10.63;;;9.63;;
20988;SDS011;10653;47.052;15.410;2023-04-24T05:14:20;10.47;;;8.93;;
20988;SDS011;10653;47.052;15.410;2023-04-24T05:16:46;8.93;;;8.03;;
20988;SDS011;10653;47.052;15.410;2023-04-24T05:19:12;11.13;;;10.00;;
20988;SDS011;10653;47.052;15.410;2023-04-24T05:21:39;13.83;;;11.60;;
20988;SDS011;10653;47.052;15.410;2023-04-24T05:24:05;15.27;;;12.20;;
20988;SDS011;10653;47.052;15.410;2023-04-24T05:26:31;12.83;;;11.43;;
20988;SDS011;10653;47.052;15.410;2023-04-24T05:28:57;13.03;;;11.57;;
20988;SDS011;10653;47.052;15.410;2023-04-24T05:31:23;12.97;;;11.67;;
20988;SDS011;10653;47.052;15.410;2023-04-24T05:33:50;12.57;;;10.33;;
20988;SDS011;10653;47.052;15.410;2023-04-24T05:36:16;14.73;;;12.13;;
20988;SDS011;10653;47.052;15.410;2023-04-24T05:38:42;14.90;;;10.23;;
20988;SDS011;10653;47.052;15.410;2023-04-24T05:41:08;14.83;;;11.10;;
20988;SDS011;10653;47.052;15.410;2023-04-24T05:43:34;13.63;;;10.60;;
20988;SDS011;10653;47.052;15.410;2023-04-24T05:46:00;10.77;;;9.70;;
20988;SDS011;10653;47.052;15.410;2023-04-24T05:48:26;11.90;;;10.70;;
20988;SDS011;10653;47.052;15.410;2023-04-24T05:50:52;12.90;;;10.00;;
20988;SDS011;10653;47.052;15.410;2023-04-24T05:53:18;11.87;;;9.87;;
20988;SDS011;10653;47.052;15.410;2023-04-24T05:55:44;13.10;;;11.40;;
20988;SDS011;10653;47.052;15.410;2023-04-24T05:58:11;17.30;;;11.07;;
20988;SDS011;10653;47.052;15.410;2023-04-24T06:00:37;11.20;;;10.10;;
20988;SDS011;10653;47.052;15.410;2023-04-24T06:03:07;11.50;;;10.30;;
20988;SDS011;10653;47.052;15.410;2023-04-24T06:05:33;11.80;;;10.60;;
20988;SDS011;10653;47.052;15.410;2023-04-24T06:07:59;15.63;;;11.67;;
20988;SDS011;10653;47.052;15.410;2023-04-24T06:10:26;13.57;;;12.10;;
20988;SDS011;10653;47.052;15.410;2023-04-24T06:12:52;17.27;;;10.97;;
20988;SDS011;10653;47.052;15.410;2023-04-24T06:15:21;13.10;;;11.00;;
20988;SDS011;10653;47.052;15.410;2023-04-24T06:17:47;13.47;;;12.10;;
20988;SDS011;10653;47.052;15.410;2023-04-24T06:20:13;14.17;;;11.53;;
20988;SDS011;10653;47.052;15.410;2023-04-24T06:22:39;12.37;;;11.17;;
20988;SDS011;10653;47.052;15.410;2023-04-24T06:25:05;13.93;;;11.57;;
20988;SDS011;10653;47.052;15.410;2023-04-24T06:27:32;14.90;;;11.63;;
20988;SDS011;10653;47.052;15.410;2023-04-24T06:29:58;13.60;;;12.13;;
20988;SDS011;10653;47.052;15.410;2023-04-24T06:32:24;14.67;;;12.30;;
20988;SDS011;10653;47.052;15.410;2023-04-24T06:34:51;16.70;;;11.83;;
20988;SDS011;10653;47.052;15.410;2023-04-24T06:37:18;12.67;;;11.23;;
20988;SDS011;10653;47.052;15.410;2023-04-24T06:39:44;12.43;;;10.97;;
20988;SDS011;10653;47.052;15.410;2023-04-24T06:42:10;12.40;;;11.20;;
20988;SDS011;10653;47.052;15.410;2023-04-24T06:44:36;13.90;;;10.00;;
20988;SDS011;10653;47.052;15.410;2023-04-24T06:47:06;12.67;;;10.87;;
20988;SDS011;10653;47.052;15.410;2023-04-24T06:49:33;15.07;;;11.57;;
20988;SDS011;10653;47.052;15.410;2023-04-24T06:51:59;12.03;;;10.80;;
20988;SDS011;10653;47.052;15.410;2023-04-24T06:54:25;15.43;;;11.07;;
20988;SDS011;10653;47.052;15.410;2023-04-24T06:56:51;14.43;;;10.93;;
20988;SDS011;10653;47.052;15.410;2023-04-24T06:59:17;13.50;;;11.23;;
20988;SDS011;10653;47.052;15.410;2023-04-24T07:01:43;16.43;;;10.67;;
20988;SDS011;10653;47.052;15.410;2023-04-24T07:04:10;13.07;;;10.57;;
20988;SDS011;10653;47.052;15.410;2023-04-24T07:06:37;12.83;;;11.00;;
20988;SDS011;10653;47.052;15.410;2023-04-24T07:09:04;15.07;;;12.03;;
20988;SDS011;10653;47.052;15.410;2023-04-24T07:11:30;16.57;;;10.90;;
20988;SDS011;10653;47.052;15.410;2023-04-24T07:13:56;18.53;;;11.67;;
20988;SDS011;10653;47.052;15.410;2023-04-24T07:16:22;12.10;;;10.43;;
20988;SDS011;10653;47.052;15.410;2023-04-24T07:18:48;13.10;;;10.73;;
20988;SDS011;10653;47.052;15.410;2023-04-24T07:21:14;14.30;;;12.20;;
20988;SDS011;10653;47.052;15.410;2023-04-24T07:23:40;14.97;;;11.30;;
20988;SDS011;10653;47.052;15.410;2023-04-24T07:26:06;14.90;;;12.03;;
20988;SDS011;10653;47.052;15.410;2023-04-24T07:28:32;13.60;;;11.10;;
20988;SDS011;10653;47.052;15.410;2023-04-24T07:30:58;17.53;;;11.30;;
20988;SDS011;10653;47.052;15.410;2023-04-24T07:33:25;14.20;;;11.03;;
20988;SDS011;10653;47.052;15.410;2023-04-24T07:35:51;12.00;;;10.70;;
20988;SDS011;10653;47.052;15.410;2023-04-24T07:38:17;15.57;;;12.20;;
20988;SDS011;10653;47.052;15.410;2023-04-24T07:40:47;11.93;;;10.63;;
20988;SDS011;10653;47.052;15.410;2023-04-24T07:43:13;12.23;;;10.60;;
20988;SDS011;10653;47.052;15.410;2023-04-24T07:45:39;14.97;;;13.33;;
20988;SDS011;10653;47.052;15.410;2023-04-24T07:48:05;13.90;;;11.50;;
20988;SDS011;10653;47.052;15.410;2023-04-24T07:50:33;14.80;;;12.40;;
20988;SDS011;10653;47.052;15.410;2023-04-24T07:53:00;16.60;;;12.87;;
20988;SDS011;10653;47.052;15.410;2023-04-24T07:55:27;13.33;;;11.93;;
20988;SDS011;10653;47.052;15.410;2023-04-24T07:57:53;14.07;;;11.10;;
20988;SDS011;10653;47.052;15.410;2023-04-24T08:00:19;12.83;;;10.40;;
20988;SDS011;10653;47.052;15.410;2023-04-24T08:02:45;16.07;;;9.50;;
20988;SDS011;10653;47.052;15.410;2023-04-24T08:05:11;10.70;;;9.60;;
20988;SDS011;10653;47.052;15.410;2023-04-24T08:07:37;14.50;;;11.70;;
20988;SDS011;10653;47.052;15.410;2023-04-24T08:10:04;14.20;;;11.37;;
20988;SDS011;10653;47.052;15.410;2023-04-24T08:12:30;13.87;;;12.37;;
20988;SDS011;10653;47.052;15.410;2023-04-24T08:14:56;14.63;;;10.87;;
20988;SDS011;10653;47.052;15.410;2023-04-24T08:17:23;13.97;;;12.03;;
20988;SDS011;10653;47.052;15.410;2023-04-24T08:19:50;15.77;;;14.07;;
20988;SDS011;10653;47.052;15.410;2023-04-24T08:22:18;12.10;;;10.73;;
20988;SDS011;10653;47.052;15.410;2023-04-24T08:24:44;15.77;;;11.33;;
20988;SDS011;10653;47.052;15.410;2023-04-24T08:27:10;16.47;;;12.17;;
20988;SDS011;10653;47.052;15.410;2023-04-24T08:29:36;10.80;;;9.30;;
20988;SDS011;10653;47.052;15.410;2023-04-24T08:32:02;10.50;;;7.80;;
20988;SDS011;10653;47.052;15.410;2023-04-24T08:34:28;7.97;;;7.17;;
20988;SDS011;10653;47.052;15.410;2023-04-24T08:36:54;6.67;;;6.07;;
20988;SDS011;10653;47.052;15.410;2023-04-24T08:39:20;6.43;;;5.70;;
20988;SDS011;10653;47.052;15.410;2023-04-24T08:41:46;7.00;;;6.13;;
20988;SDS011;10653;47.052;15.410;2023-04-24T08:44:13;6.53;;;5.20;;
20988;SDS011;10653;47.052;15.410;2023-04-24T08:46:41;6.53;;;5.93;;
20988;SDS011;10653;47.052;15.410;2023-04-24T08:49:08;8.37;;;5.73;;
20988;SDS011;10653;47.052;15.410;2023-04-24T08:51:35;6.23;;;5.63;;
20988;SDS011;10653;47.052;15.410;2023-04-24T08:54:02;6.83;;;5.90;;
20988;SDS011;10653;47.052;15.410;2023-04-24T08:56:28;7.00;;;6.30;;
20988;SDS011;10653;47.052;15.410;2023-04-24T08:58:56;8.20;;;5.83;;
20988;SDS011;10653;47.052;15.410;2023-04-24T09:01:22;5.53;;;5.03;;
20988;SDS011;10653;47.052;15.410;2023-04-24T09:03:50;6.83;;;6.13;;
20988;SDS011;10653;47.052;15.410;2023-04-24T09:06:17;6.60;;;5.97;;
20988;SDS011;10653;47.052;15.410;2023-04-24T09:08:43;6.50;;;5.30;;
20988;SDS011;10653;47.052;15.410;2023-04-24T09:11:11;5.90;;;5.17;;
20988;SDS011;10653;47.052;15.410;2023-04-24T09:13:37;5.80;;;5.20;;
20988;SDS011;10653;47.052;15.410;2023-04-24T09:16:03;5.90;;;5.40;;
20988;SDS011;10653;47.052;15.410;2023-04-24T09:18:29;7.40;;;6.00;;
20988;SDS011;10653;47.052;15.410;2023-04-24T09:21:02;6.20;;;5.60;;
20988;SDS011;10653;47.052;15.410;2023-04-24T09:23:29;6.03;;;5.43;;
20988;SDS011;10653;47.052;15.410;2023-04-24T09:25:56;6.50;;;5.90;;
20988;SDS011;10653;47.052;15.410;2023-04-24T09:28:30;4.73;;;3.57;;
20988;SDS011;10653;47.052;15.410;2023-04-24T09:31:06;3.20;;;2.90;;
20988;SDS011;10653;47.052;15.410;2023-04-24T09:33:32;4.60;;;2.30;;
20988;SDS011;10653;47.052;15.410;2023-04-24T09:35:58;3.50;;;2.20;;
20988;SDS011;10653;47.052;15.410;2023-04-24T09:38:32;2.57;;;1.83;;
20988;SDS011;10653;47.052;15.410;2023-04-24T09:40:59;4.00;;;2.00;;
20988;SDS011;10653;47.052;15.410;2023-04-24T09:43:26;1.57;;;1.40;;
20988;SDS011;10653;47.052;15.410;2023-04-24T09:45:53;5.90;;;1.80;;
20988;SDS011;10653;47.052;15.410;2023-04-24T09:48:29;1.30;;;1.20;;
20988;SDS011;10653;47.052;15.410;2023-04-24T09:50:56;1.27;;;1.17;;
20988;SDS011;10653;47.052;15.410;2023-04-24T09:53:25;1.73;;;1.37;;
20988;SDS011;10653;47.052;15.410;2023-04-24T09:55:51;4.03;;;1.10;;
20988;SDS011;10653;47.052;15.410;2023-04-24T09:58:18;1.67;;;1.40;;
20988;SDS011;10653;47.052;15.410;2023-04-24T10:00:44;1.73;;;1.33;;
20988;SDS011;10653;47.052;15.410;2023-04-24T10:03:11;2.23;;;1.30;;
20988;SDS011;10653;47.052;15.410;2023-04-24T10:05:37;1.10;;;0.97;;
20988;SDS011;10653;47.052;15.410;2023-04-24T10:08:10;0.93;;;0.80;;
20988;SDS011;10653;47.052;15.410;2023-04-24T10:10:44;0.80;;;0.70;;
20988;SDS011;10653;47.052;15.410;2023-04-24T10:13:11;0.90;;;0.70;;
20988;SDS011;10653;47.052;15.410;2023-04-24T10:15:38;1.13;;;1.03;;
20988;SDS011;10653;47.052;15.410;2023-04-24T10:18:05;2.10;;;0.70;;
20988;SDS011;10653;47.052;15.410;2023-04-24T10:20:31;1.27;;;0.80;;
20988;SDS011;10653;47.052;15.410;2023-04-24T10:22:58;0.70;;;0.53;;
20988;SDS011;10653;47.052;15.410;2023-04-24T10:25:28;1.93;;;0.63;;
20988;SDS011;10653;47.052;15.410;2023-04-24T10:27:55;1.10;;;0.70;;
20988;SDS011;10653;47.052;15.410;2023-04-24T10:30:25;0.60;;;0.53;;
20988;SDS011;10653;47.052;15.410;2023-04-24T10:32:51;0.70;;;0.60;;
20988;SDS011;10653;47.052;15.410;2023-04-24T10:35:18;0.70;;;0.60;;
20988;SDS011;10653;47.052;15.410;2023-04-24T10:37:51;0.70;;;0.70;;
20988;SDS011;10653;47.052;15.410;2023-04-24T10:40:19;1.00;;;0.90;;
20988;SDS011;10653;47.052;15.410;2023-04-24T10:42:51;1.00;;;0.90;;
20988;SDS011;10653;47.052;15.410;2023-04-24T10:45:21;3.10;;;0.90;;
20988;SDS011;10653;47.052;15.410;2023-04-24T10:50:52;2.27;;;1.10;;
20988;SDS011;10653;47.052;15.410;2023-04-24T10:53:22;1.60;;;1.30;;
20988;SDS011;10653;47.052;15.410;2023-04-24T10:55:51;1.73;;;1.20;;
20988;SDS011;10653;47.052;15.410;2023-04-24T10:58:24;1.20;;;1.00;;
20988;SDS011;10653;47.052;15.410;2023-04-24T11:00:57;1.30;;;1.20;;
20988;SDS011;10653;47.052;15.410;2023-04-24T11:03:24;1.00;;;0.90;;
20988;SDS011;10653;47.052;15.410;2023-04-24T11:05:51;1.00;;;0.87;;
20988;SDS011;10653;47.052;15.410;2023-04-24T11:08:22;1.50;;;1.03;;
20988;SDS011;10653;47.052;15.410;2023-04-24T11:10:56;1.30;;;1.03;;
20988;SDS011;10653;47.052;15.410;2023-04-24T11:13:25;1.60;;;1.30;;
20988;SDS011;10653;47.052;15.410;2023-04-24T11:18:37;1.53;;;1.00;;
20988;SDS011;10653;47.052;15.410;2023-04-24T11:21:11;1.10;;;0.90;;
20988;SDS011;10653;47.052;15.410;2023-04-24T11:23:37;0.73;;;0.60;;
20988;SDS011;10653;47.052;15.410;2023-04-24T11:26:10;1.03;;;0.90;;
20988;SDS011;10653;47.052;15.410;2023-04-24T11:28:37;1.23;;;0.90;;
20988;SDS011;10653;47.052;15.410;2023-04-24T11:33:47;1.43;;;1.30;;
20988;SDS011;10653;47.052;15.410;2023-04-24T11:36:13;1.80;;;0.83;;
20988;SDS011;10653;47.052;15.410;2023-04-24T11:38:39;2.10;;;0.97;;
20988;SDS011;10653;47.052;15.410;2023-04-24T11:41:06;3.43;;;0.90;;
20988;SDS011;10653;47.052;15.410;2023-04-24T11:43:32;2.43;;;0.90;;
20988;SDS011;10653;47.052;15.410;2023-04-24T11:45:59;1.13;;;1.00;;
20988;SDS011;10653;47.052;15.410;2023-04-24T11:48:25;1.43;;;0.90;;
20988;SDS011;10653;47.052;15.410;2023-04-24T11:50:51;0.80;;;0.60;;
20988;SDS011;10653;47.052;15.410;2023-04-24T11:53:20;2.07;;;0.90;;
20988;SDS011;10653;47.052;15.410;2023-04-24T11:55:47;0.80;;;0.80;;
20988;SDS011;10653;47.052;15.410;2023-04-24T11:58:13;1.10;;;0.90;;
20988;SDS011;10653;47.052;15.410;2023-04-24T12:00:39;1.73;;;0.73;;
20988;SDS011;10653;47.052;15.410;2023-04-24T12:05:31;1.00;;;0.60;;
20988;SDS011;10653;47.052;15.410;2023-04-24T12:07:57;1.70;;;0.73;;
20988;SDS011;10653;47.052;15.410;2023-04-24T12:10:24;0.80;;;0.50;;
20988;SDS011;10653;47.052;15.410;2023-04-24T12:12:50;0.67;;;0.60;;
20988;SDS011;10653;47.052;15.410;2023-04-24T12:15:17;0.80;;;0.70;;
20988;SDS011;10653;47.052;15.410;2023-04-24T12:17:44;0.67;;;0.60;;
20988;SDS011;10653;47.052;15.410;2023-04-24T12:20:10;2.10;;;0.80;;
20988;SDS011;10653;47.052;15.410;2023-04-24T12:22:50;0.83;;;0.70;;
20988;SDS011;10653;47.052;15.410;2023-04-24T12:25:18;3.33;;;0.60;;
20988;SDS011;10653;47.052;15.410;2023-04-24T12:27:44;0.60;;;0.50;;
20988;SDS011;10653;47.052;15.410;2023-04-24T12:30:12;1.10;;;0.60;;
20988;SDS011;10653;47.052;15.410;2023-04-24T12:32:42;0.60;;;0.60;;
20988;SDS011;10653;47.052;15.410;2023-04-24T12:35:08;1.20;;;0.67;;
20988;SDS011;10653;47.052;15.410;2023-04-24T12:37:34;0.90;;;0.73;;
20988;SDS011;10653;47.052;15.410;2023-04-24T12:40:08;1.47;;;0.80;;
20988;SDS011;10653;47.052;15.410;2023-04-24T12:42:34;0.80;;;0.80;;
20988;SDS011;10653;47.052;15.410;2023-04-24T12:45:02;1.50;;;0.80;;
20988;SDS011;10653;47.052;15.410;2023-04-24T12:47:29;0.87;;;0.60;;
20988;SDS011;10653;47.052;15.410;2023-04-24T12:49:55;4.93;;;0.67;;
20988;SDS011;10653;47.052;15.410;2023-04-24T12:52:27;1.20;;;0.87;;
20988;SDS011;10653;47.052;15.410;2023-04-24T12:54:54;0.90;;;0.60;;
20988;SDS011;10653;47.052;15.410;2023-04-24T12:57:21;1.77;;;0.80;;
20988;SDS011;10653;47.052;15.410;2023-04-24T12:59:47;1.20;;;0.90;;
20988;SDS011;10653;47.052;15.410;2023-04-24T13:02:13;0.50;;;0.40;;
20988;SDS011;10653;47.052;15.410;2023-04-24T13:04:42;2.40;;;0.87;;
20988;SDS011;10653;47.052;15.410;2023-04-24T13:07:08;1.73;;;1.00;;
20988;SDS011;10653;47.052;15.410;2023-04-24T13:09:34;1.47;;;0.83;;
20988;SDS011;10653;47.052;15.410;2023-04-24T13:12:00;0.97;;;0.80;;
20988;SDS011;10653;47.052;15.410;2023-04-24T13:14:26;0.70;;;0.63;;
20988;SDS011;10653;47.052;15.410;2023-04-24T13:16:52;0.87;;;0.57;;
20988;SDS011;10653;47.052;15.410;2023-04-24T13:19:18;1.40;;;0.50;;
20988;SDS011;10653;47.052;15.410;2023-04-24T13:21:45;1.50;;;0.60;;
20988;SDS011;10653;47.052;15.410;2023-04-24T13:24:11;0.70;;;0.40;;
20988;SDS011;10653;47.052;15.410;2023-04-24T13:26:37;0.70;;;0.60;;
20988;SDS011;10653;47.052;15.410;2023-04-24T13:29:04;1.23;;;0.70;;
20988;SDS011;10653;47.052;15.410;2023-04-24T13:31:30;3.03;;;1.00;;
20988;SDS011;10653;47.052;15.410;2023-04-24T13:33:56;1.30;;;0.90;;
20988;SDS011;10653;47.052;15.410;2023-04-24T13:36:22;2.20;;;0.57;;
20988;SDS011;10653;47.052;15.410;2023-04-24T13:38:48;0.77;;;0.67;;
20988;SDS011;10653;47.052;15.410;2023-04-24T13:41:14;1.00;;;0.80;;
20988;SDS011;10653;47.052;15.410;2023-04-24T13:43:40;1.73;;;0.70;;
20988;SDS011;10653;47.052;15.410;2023-04-24T13:46:07;1.00;;;0.90;;
20988;SDS011;10653;47.052;15.410;2023-04-24T13:48:33;0.97;;;0.50;;
20988;SDS011;10653;47.052;15.410;2023-04-24T13:50:59;1.13;;;0.60;;
20988;SDS011;10653;47.052;15.410;2023-04-24T13:53:25;0.80;;;0.53;;
20988;SDS011;10653;47.052;15.410;2023-04-24T13:55:51;0.77;;;0.67;;
20988;SDS011;10653;47.052;15.410;2023-04-24T13:58:17;1.00;;;0.80;;
20988;SDS011;10653;47.052;15.410;2023-04-24T14:00:43;0.77;;;0.60;;
20988;SDS011;10653;47.052;15.410;2023-04-24T14:03:10;0.93;;;0.80;;
20988;SDS011;10653;47.052;15.410;2023-04-24T14:05:36;2.53;;;0.67;;
20988;SDS011;10653;47.052;15.410;2023-04-24T14:08:02;1.27;;;0.73;;
20988;SDS011;10653;47.052;15.410;2023-04-24T14:10:28;1.70;;;0.60;;
20988;SDS011;10653;47.052;15.410;2023-04-24T14:12:54;1.00;;;0.70;;
20988;SDS011;10653;47.052;15.410;2023-04-24T14:15:20;3.07;;;1.10;;
20988;SDS011;10653;47.052;15.410;2023-04-24T14:17:47;1.40;;;0.90;;
20988;SDS011;10653;47.052;15.410;2023-04-24T14:20:14;1.17;;;0.83;;
20988;SDS011;10653;47.052;15.410;2023-04-24T14:22:40;1.50;;;1.03;;
20988;SDS011;10653;47.052;15.410;2023-04-24T14:25:07;1.37;;;0.90;;
20988;SDS011;10653;47.052;15.410;2023-04-24T14:27:33;1.90;;;1.13;;
20988;SDS011;10653;47.052;15.410;2023-04-24T14:29:59;0.83;;;0.73;;
20988;SDS011;10653;47.052;15.410;2023-04-24T14:32:25;1.57;;;0.50;;
20988;SDS011;10653;47.052;15.410;2023-04-24T14:34:51;0.90;;;0.60;;
20988;SDS011;10653;47.052;15.410;2023-04-24T14:37:18;0.93;;;0.83;;